createdAt,value
2023-01-13T00:02:56.371Z,93.43
2023-01-13T00:05:25.675Z,93.26
2023-01-13T00:10:56.309Z,93.56
2023-01-13T00:13:27.066Z,93.45
2023-01-13T00:16:07.781Z,93.34
2023-01-13T00:18:39.138Z,93.53
2023-01-13T00:21:11.369Z,93.64
2023-01-13T00:24:04.527Z,93.47
2023-01-13T00:26:35.874Z,93.43
2023-01-13T00:29:04.284Z,93.37
2023-01-13T00:31:32.529Z,93.17
2023-01-13T00:34:00.999Z,93.05
2023-01-13T00:36:34.218Z,92.92
2023-01-13T00:39:03.160Z,92.90
2023-01-13T00:41:56.133Z,92.72
2023-01-13T00:44:24.228Z,92.50
2023-01-13T00:46:57.372Z,92.54
2023-01-13T00:49:24.273Z,92.48
2023-01-13T00:51:52.363Z,92.17
2023-01-13T00:54:20.203Z,92.05
2023-01-13T00:56:48.346Z,92.12
2023-01-13T00:59:44.873Z,91.78
2023-01-13T01:02:12.323Z,91.89
2023-01-13T01:04:40.253Z,91.95
2023-01-13T01:07:08.562Z,91.50
2023-01-13T01:12:52.588Z,90.95
2023-01-13T01:15:25.372Z,91.05
2023-01-13T01:20:44.261Z,90.83
2023-01-13T01:23:38.041Z,90.87
2023-01-13T01:26:09.138Z,90.65
2023-01-13T01:28:36.374Z,90.40
2023-01-13T01:31:09.455Z,89.99
2023-01-13T01:33:41.508Z,90.63
2023-01-13T01:36:09.246Z,90.06
2023-01-13T01:38:36.205Z,90.09
2023-01-13T01:41:31.996Z,90.20
2023-01-13T01:44:21.953Z,90.14
2023-01-13T01:46:50.275Z,89.97
2023-01-13T01:49:27.933Z,90.06
2023-01-13T01:51:56.192Z,90.45
2023-01-13T01:54:31.463Z,90.23
2023-01-13T01:57:04.023Z,90.42
2023-01-13T01:59:33.142Z,90.49
2023-01-13T02:02:00.593Z,90.34
2023-01-13T02:04:31.631Z,90.52
2023-01-13T02:07:01.279Z,90.56
2023-01-13T02:09:28.421Z,90.57
2023-01-13T02:12:19.756Z,90.21
2023-01-13T02:14:48.271Z,89.97
2023-01-13T02:17:44.109Z,90.39
2023-01-13T02:20:38.008Z,90.20
2023-01-13T02:23:37.062Z,90.20
2023-01-13T02:26:52.338Z,90.27
2023-01-13T02:29:59.907Z,89.83
2023-01-13T02:32:53.061Z,90.69
2023-01-13T02:35:31.179Z,90.64
2023-01-13T02:37:59.949Z,90.39
2023-01-13T02:40:41.954Z,90.31
2023-01-13T02:46:48.636Z,90.23
2023-01-13T02:49:25.801Z,90.00
2023-01-13T02:52:00.195Z,90.15
2023-01-13T02:55:01.443Z,90.37
2023-01-13T02:57:31.900Z,89.92
2023-01-13T03:00:07.679Z,90.50
2023-01-13T03:05:33.483Z,90.38
2023-01-13T03:08:33.051Z,89.80
2023-01-13T03:11:09.562Z,90.08
2023-01-13T03:13:52.065Z,90.03
2023-01-13T03:16:36.007Z,90.08
2023-01-13T03:19:42.599Z,89.98
2023-01-13T03:22:22.346Z,90.22
2023-01-13T03:24:57.794Z,90.49
2023-01-13T03:27:51.372Z,90.52
2023-01-13T03:30:25.473Z,90.29
2023-01-13T03:33:01.148Z,90.66
2023-01-13T03:35:36.997Z,90.65
2023-01-13T03:38:10.742Z,90.59
2023-01-13T03:40:44.759Z,90.51
2023-01-13T03:43:41.871Z,90.04
2023-01-13T03:46:18.386Z,90.45
2023-01-13T03:48:53.011Z,90.12
2023-01-13T03:51:26.490Z,89.73
2023-01-13T03:54:01.910Z,89.71
2023-01-13T03:56:45.390Z,89.17
2023-01-13T03:59:20.323Z,89.40
2023-01-13T04:02:21.637Z,89.49
2023-01-13T04:05:03.498Z,89.18
2023-01-13T04:07:45.225Z,89.26
2023-01-13T04:10:19.946Z,88.86
2023-01-13T04:13:02.503Z,88.62
2023-01-13T04:15:34.155Z,88.87
2023-01-13T04:18:13.078Z,88.83
2023-01-13T04:20:41.434Z,88.65
2023-01-13T04:23:10.661Z,88.79
2023-01-13T04:25:38.187Z,89.16
2023-01-13T04:28:06.603Z,89.31
2023-01-13T04:30:34.335Z,89.10
2023-01-13T04:33:04.148Z,89.00
2023-01-13T04:35:33.636Z,89.20
2023-01-13T04:41:20.157Z,89.06
2023-01-13T04:43:53.197Z,89.06
2023-01-13T04:46:45.486Z,88.78
2023-01-13T04:49:12.309Z,89.13
2023-01-13T04:51:40.256Z,89.02
2023-01-13T04:54:10.941Z,89.24
2023-01-13T04:57:04.224Z,89.24
2023-01-13T05:02:24.273Z,89.14
2023-01-13T05:04:52.198Z,89.07
2023-01-13T05:07:20.168Z,89.45
2023-01-13T05:09:48.191Z,89.14
2023-01-13T05:12:34.755Z,89.10
2023-01-13T05:15:21.055Z,89.48
2023-01-13T05:17:49.346Z,89.41
2023-01-13T05:20:16.508Z,89.33
2023-01-13T05:23:02.757Z,89.44
2023-01-13T05:28:22.186Z,89.46
2023-01-13T05:30:51.144Z,89.73
2023-01-13T05:33:20.370Z,89.01
2023-01-13T05:35:52.348Z,89.41
2023-01-13T05:38:20.164Z,89.35
2023-01-13T05:41:11.837Z,89.37
2023-01-13T05:44:05.713Z,89.38
2023-01-13T05:46:58.174Z,89.65
2023-01-13T05:49:30.149Z,89.63
2023-01-13T05:51:58.183Z,89.58
2023-01-13T05:54:26.151Z,89.71
2023-01-13T05:57:03.182Z,89.31
2023-01-13T05:59:30.168Z,89.30
2023-01-13T06:01:58.161Z,88.81
2023-01-13T06:04:26.190Z,89.37
2023-01-13T06:09:51.292Z,89.49
2023-01-13T06:12:18.184Z,88.99
2023-01-13T06:14:46.173Z,89.14
2023-01-13T06:17:15.696Z,88.41
2023-01-13T06:19:48.221Z,88.83
2023-01-13T06:22:26.789Z,88.76
2023-01-13T06:24:54.698Z,88.87
2023-01-13T06:27:22.979Z,88.61
2023-01-13T06:29:50.512Z,88.80
2023-01-13T06:32:28.109Z,88.13
2023-01-13T06:35:05.717Z,88.73
2023-01-13T06:37:40.314Z,88.60
2023-01-13T06:40:09.847Z,88.25
2023-01-13T06:43:02.299Z,88.29
2023-01-13T06:45:31.316Z,88.31
2023-01-13T06:48:27.850Z,88.58
2023-01-13T06:50:56.211Z,88.01
2023-01-13T06:53:28.119Z,88.05
2023-01-13T06:55:56.282Z,88.43
2023-01-13T06:58:29.274Z,88.09
2023-01-13T07:01:00.531Z,87.86
2023-01-13T07:03:28.272Z,88.44
2023-01-13T07:06:20.169Z,87.38
2023-01-13T07:08:52.229Z,87.93
2023-01-13T07:11:44.177Z,88.24
2023-01-13T07:14:35.843Z,88.13
2023-01-13T07:17:04.252Z,87.98
2023-01-13T07:19:37.202Z,88.28
2023-01-13T07:22:04.208Z,88.02
2023-01-13T07:27:24.296Z,87.38
2023-01-13T07:29:52.180Z,88.12
2023-01-13T07:32:24.195Z,87.85
2023-01-13T07:34:52.251Z,87.20
2023-01-13T07:37:44.349Z,87.28
2023-01-13T07:40:17.934Z,87.44
2023-01-13T07:43:04.799Z,87.28
2023-01-13T07:45:38.213Z,87.45
2023-01-13T07:48:08.152Z,86.79
2023-01-13T07:50:36.453Z,86.90
2023-01-13T07:53:04.312Z,86.46
2023-01-13T07:55:32.259Z,87.01
2023-01-13T07:58:00.178Z,86.47
2023-01-13T08:00:28.169Z,87.01
2023-01-13T08:02:56.282Z,86.62
2023-01-13T08:05:29.178Z,86.97
2023-01-13T08:07:56.242Z,87.16
2023-01-13T08:10:24.159Z,86.96
2023-01-13T08:13:10.759Z,86.97
2023-01-13T08:15:40.065Z,86.24
2023-01-13T08:18:08.136Z,86.57
2023-01-13T08:21:05.362Z,86.96
2023-01-13T08:23:32.313Z,86.86
2023-01-13T08:26:05.902Z,86.60
2023-01-13T08:28:34.245Z,86.83
2023-01-13T08:33:56.197Z,86.61
2023-01-13T08:36:25.530Z,86.37
2023-01-13T08:38:52.317Z,86.71
2023-01-13T08:41:42.761Z,86.63
2023-01-13T08:44:16.183Z,86.07
2023-01-13T08:46:44.308Z,86.20
2023-01-13T08:49:12.315Z,86.46
2023-01-13T08:51:40.156Z,86.52
2023-01-13T08:54:13.195Z,85.87
2023-01-13T08:56:46.918Z,85.85
2023-01-13T09:02:17.109Z,85.83
2023-01-13T09:04:49.840Z,85.28
2023-01-13T09:07:18.843Z,85.46
2023-01-13T09:12:56.698Z,84.97
2023-01-13T09:15:34.289Z,84.81
2023-01-13T09:18:02.653Z,85.30
2023-01-13T09:20:30.164Z,85.44
2023-01-13T09:22:58.156Z,84.69
2023-01-13T09:25:26.185Z,84.28
2023-01-13T09:27:54.186Z,84.51
2023-01-13T09:30:22.211Z,83.86
2023-01-13T09:33:10.206Z,84.59
2023-01-13T09:35:43.308Z,83.97
2023-01-13T09:38:15.194Z,84.22
2023-01-13T09:40:43.850Z,84.75
2023-01-13T09:43:44.473Z,83.73
2023-01-13T09:47:05.434Z,83.70
2023-01-13T09:49:39.166Z,83.70
2023-01-13T09:52:16.283Z,84.26
2023-01-13T09:54:54.695Z,83.56
2023-01-13T09:57:22.225Z,82.50
2023-01-13T09:59:50.603Z,83.75
2023-01-13T10:02:31.030Z,83.67
2023-01-13T10:05:10.494Z,83.58
2023-01-13T10:07:44.780Z,83.82
2023-01-13T10:10:44.055Z,83.45
2023-01-13T10:16:50.781Z,82.63
2023-01-13T10:19:38.725Z,83.30
2023-01-13T10:22:19.042Z,82.49
2023-01-13T10:25:12.470Z,83.31
2023-01-13T10:27:40.702Z,82.83
2023-01-13T10:30:19.608Z,81.79
2023-01-13T10:32:57.866Z,82.30
2023-01-13T10:35:59.574Z,82.82
2023-01-13T10:38:35.260Z,81.60
2023-01-13T10:41:03.972Z,82.60
2023-01-13T10:43:32.667Z,82.37
2023-01-13T10:46:08.131Z,82.75
2023-01-13T10:48:39.877Z,82.74
2023-01-13T10:51:21.418Z,81.56
2023-01-13T10:54:19.780Z,82.84
2023-01-13T10:57:26.888Z,84.13
2023-01-13T10:59:55.365Z,84.08
2023-01-13T11:02:34.315Z,84.41
2023-01-13T11:05:25.193Z,85.32
2023-01-13T11:07:54.985Z,86.42
2023-01-13T11:10:27.503Z,86.91
2023-01-13T11:13:16.609Z,87.49
2023-01-13T11:16:10.885Z,87.42
2023-01-13T11:19:14.069Z,88.12
2023-01-13T11:22:05.685Z,88.11
2023-01-13T11:24:51.017Z,88.37
2023-01-13T11:27:36.673Z,88.36
2023-01-13T11:30:10.324Z,88.53
2023-01-13T11:32:53.512Z,88.23
2023-01-13T11:35:27.882Z,88.17
2023-01-13T11:38:04.486Z,88.25
2023-01-13T11:40:51.036Z,87.99
2023-01-13T11:43:38.722Z,87.56
2023-01-13T11:46:09.739Z,87.09
2023-01-13T11:48:41.699Z,87.55
2023-01-13T11:51:14.121Z,87.49
2023-01-13T11:54:17.681Z,87.45
2023-01-13T11:56:55.181Z,87.01
2023-01-13T11:59:53.828Z,86.94
2023-01-13T12:02:40.469Z,86.79
2023-01-13T12:05:32.698Z,86.23
2023-01-13T12:08:12.362Z,86.34
2023-01-13T12:11:23.066Z,86.34
2023-01-13T12:14:02.368Z,86.57
2023-01-13T12:16:34.619Z,86.31
2023-01-13T12:19:30.915Z,86.73
2023-01-13T12:22:27.877Z,86.92
2023-01-13T12:28:58.123Z,87.13
2023-01-13T12:31:27.972Z,86.50
2023-01-13T12:34:33.619Z,86.37
2023-01-13T12:37:10.026Z,86.49
2023-01-13T12:39:45.814Z,86.29
2023-01-13T12:42:39.427Z,86.87
2023-01-13T12:45:12.430Z,86.71
2023-01-13T12:47:43.646Z,86.84
2023-01-13T12:50:24.757Z,86.93
2023-01-13T12:52:55.117Z,86.44
2023-01-13T12:55:23.466Z,86.91
2023-01-13T12:58:15.813Z,87.87
2023-01-13T13:01:13.880Z,88.42
2023-01-13T13:04:02.608Z,88.59
2023-01-13T13:06:31.651Z,88.56
2023-01-13T13:09:03.864Z,88.49
2023-01-13T13:11:58.337Z,88.64
2023-01-13T13:15:03.079Z,88.83
2023-01-13T13:17:32.153Z,88.51
2023-01-13T13:20:01.505Z,88.63
2023-01-13T13:22:28.163Z,88.25
2023-01-13T13:24:57.593Z,88.37
2023-01-13T13:27:38.199Z,88.05
2023-01-13T13:30:22.431Z,87.98
2023-01-13T13:33:00.174Z,87.68
2023-01-13T13:36:02.763Z,87.39
2023-01-13T13:39:13.892Z,87.58
2023-01-13T13:42:06.810Z,87.56
2023-01-13T13:45:01.490Z,87.49
2023-01-13T13:47:38.361Z,87.69
2023-01-13T13:50:19.287Z,88.26
2023-01-13T13:53:09.983Z,88.17
2023-01-13T13:55:55.891Z,88.57
2023-01-13T13:58:26.285Z,88.34
2023-01-13T14:00:55.090Z,88.36
2023-01-13T14:03:31.328Z,88.48
2023-01-13T14:06:24.355Z,88.34
2023-01-13T14:08:52.182Z,88.20
2023-01-13T14:11:29.506Z,88.29
2023-01-13T14:14:07.250Z,88.32
2023-01-13T14:16:41.072Z,88.34
2023-01-13T14:19:33.183Z,88.13
2023-01-13T14:22:02.525Z,88.58
2023-01-13T14:24:41.637Z,88.89
2023-01-13T14:27:14.796Z,89.32
2023-01-13T14:29:56.431Z,89.32
2023-01-13T14:32:33.586Z,89.65
2023-01-13T14:37:54.223Z,89.56
2023-01-13T14:40:43.305Z,89.60
2023-01-13T14:43:16.982Z,89.66
2023-01-13T14:45:56.407Z,89.47
2023-01-13T14:48:33.123Z,89.51
2023-01-13T14:51:11.069Z,89.22
2023-01-13T14:53:43.103Z,89.12
2023-01-13T14:56:37.967Z,89.04
2023-01-13T14:59:34.490Z,88.76
2023-01-13T15:02:42.863Z,88.68
2023-01-13T15:08:12.327Z,89.08
2023-01-13T15:11:00.049Z,89.11
2023-01-13T15:13:40.409Z,89.37
2023-01-13T15:16:23.343Z,89.85
2023-01-13T15:18:50.500Z,90.16
2023-01-13T15:21:18.660Z,90.67
2023-01-13T15:23:47.409Z,90.46
2023-01-13T15:26:27.019Z,90.32
2023-01-13T15:28:56.755Z,90.21
2023-01-13T15:31:29.997Z,90.43
2023-01-13T15:34:00.286Z,90.23
2023-01-13T15:36:34.119Z,90.28
2023-01-13T15:39:02.269Z,90.48
2023-01-13T15:41:48.772Z,90.01
2023-01-13T15:44:35.789Z,89.93
2023-01-13T15:47:07.400Z,90.15
2023-01-13T15:49:45.178Z,90.06
2023-01-13T15:52:24.518Z,90.15
2023-01-13T15:54:53.607Z,90.05
2023-01-13T15:57:30.711Z,90.04
2023-01-13T16:00:01.416Z,90.01
2023-01-13T16:02:34.542Z,90.23
2023-01-13T16:05:02.103Z,90.13
2023-01-13T16:07:30.331Z,90.52
2023-01-13T16:09:59.511Z,90.39
2023-01-13T16:15:22.875Z,90.67
2023-01-13T16:18:01.043Z,90.90
2023-01-13T16:20:28.321Z,90.85
2023-01-13T16:23:01.413Z,90.89
2023-01-13T16:25:28.202Z,90.76
2023-01-13T16:28:02.517Z,91.24
2023-01-13T16:30:36.536Z,90.64
2023-01-13T16:33:10.982Z,91.04
2023-01-13T16:36:08.779Z,91.21
2023-01-13T16:38:26.212Z,91.13
2023-01-13T16:40:56.935Z,91.52
2023-01-13T16:43:24.151Z,91.47
2023-01-13T16:45:52.288Z,91.49
2023-01-13T16:48:20.723Z,91.82
2023-01-13T16:50:59.291Z,91.66
2023-01-13T16:53:33.963Z,91.58
2023-01-13T16:56:02.173Z,91.61
2023-01-13T16:58:30.196Z,91.57
2023-01-13T17:00:58.214Z,91.61
2023-01-13T17:03:26.288Z,91.24
2023-01-13T17:05:54.217Z,91.51
2023-01-13T17:08:22.350Z,91.31
2023-01-13T17:10:50.714Z,91.28
2023-01-13T17:13:24.249Z,91.25
2023-01-13T17:15:57.258Z,90.76
2023-01-13T17:18:24.180Z,90.94
2023-01-13T17:20:52.145Z,90.88
2023-01-13T17:23:45.009Z,90.79
2023-01-13T17:29:27.191Z,90.60
2023-01-13T17:31:56.358Z,90.70
2023-01-13T17:34:24.209Z,90.58
2023-01-13T17:36:52.283Z,90.74
2023-01-13T17:39:26.711Z,90.67
2023-01-13T17:41:55.899Z,90.61
2023-01-13T17:44:24.267Z,90.76
2023-01-13T17:46:52.214Z,91.08
2023-01-13T17:49:49.213Z,91.02
2023-01-13T17:52:16.166Z,90.98
2023-01-13T17:54:44.288Z,90.85
2023-01-13T17:57:16.344Z,91.17
2023-01-13T17:59:44.208Z,90.93
2023-01-13T18:02:16.338Z,90.99
2023-01-13T18:04:44.232Z,90.91
2023-01-13T18:07:12.261Z,90.69
2023-01-13T18:09:40.171Z,90.54
2023-01-13T18:12:12.194Z,90.47
2023-01-13T18:14:40.456Z,90.68
2023-01-13T18:17:08.301Z,90.65
2023-01-13T18:20:03.712Z,90.55
2023-01-13T18:26:00.803Z,91.08
2023-01-13T18:31:20.181Z,91.05
2023-01-13T18:33:48.181Z,90.76
2023-01-13T18:36:25.202Z,91.01
2023-01-13T18:38:52.351Z,90.63
2023-01-13T18:41:56.020Z,91.18
2023-01-13T18:44:24.193Z,90.66
2023-01-13T18:46:52.226Z,91.02
2023-01-13T18:49:20.168Z,91.13
2023-01-13T18:51:48.176Z,91.69
2023-01-13T18:54:16.198Z,91.90
2023-01-13T18:56:44.160Z,91.78
2023-01-13T18:59:12.285Z,91.86
2023-01-13T19:01:40.306Z,91.71
2023-01-13T19:04:11.390Z,91.47
2023-01-13T19:06:39.963Z,91.56
2023-01-13T19:12:28.243Z,91.59
2023-01-13T19:14:57.610Z,91.42
2023-01-13T19:17:35.394Z,91.26
2023-01-13T19:20:04.049Z,91.11
2023-01-13T19:22:34.689Z,91.14
2023-01-13T19:25:03.657Z,91.18
2023-01-13T19:27:32.151Z,91.34
2023-01-13T19:32:52.172Z,91.12
2023-01-13T19:35:20.455Z,90.91
2023-01-13T19:37:48.192Z,91.02
2023-01-13T19:40:16.358Z,91.24
2023-01-13T19:43:02.499Z,91.58
2023-01-13T19:48:33.188Z,91.77
2023-01-13T19:51:00.799Z,91.47
2023-01-13T19:53:29.485Z,91.81
2023-01-13T19:56:01.411Z,92.04
2023-01-13T19:58:34.104Z,91.95
2023-01-13T20:01:09.689Z,92.05
2023-01-13T20:03:38.214Z,91.49
2023-01-13T20:06:10.789Z,91.74
2023-01-13T20:08:38.267Z,91.53
2023-01-13T20:11:21.267Z,91.70
2023-01-13T20:16:45.139Z,91.14
2023-01-13T20:19:12.362Z,91.00
2023-01-13T20:21:42.209Z,90.71
2023-01-13T20:24:17.727Z,90.85
2023-01-13T20:26:47.063Z,90.54
2023-01-13T20:29:14.300Z,90.66
2023-01-13T20:31:42.264Z,90.93
2023-01-13T20:34:10.169Z,90.67
2023-01-13T20:36:43.212Z,90.52
2023-01-13T20:39:40.218Z,90.64
2023-01-13T20:42:27.789Z,90.70
2023-01-13T20:44:57.398Z,90.50
2023-01-13T20:50:16.779Z,90.09
2023-01-13T20:52:44.472Z,90.29
2023-01-13T20:55:15.613Z,90.08
2023-01-13T21:00:42.215Z,90.40
2023-01-13T21:03:10.232Z,90.36
2023-01-13T21:05:38.283Z,89.75
2023-01-13T21:08:06.212Z,90.08
2023-01-13T21:10:34.313Z,89.92
2023-01-13T21:13:24.948Z,89.93
2023-01-13T21:15:58.376Z,89.98
2023-01-13T21:18:44.763Z,90.02
2023-01-13T21:21:12.242Z,89.94
2023-01-13T21:23:42.387Z,89.98
2023-01-13T21:26:11.493Z,89.90
2023-01-13T21:28:38.307Z,89.90
2023-01-13T21:31:08.703Z,89.85
2023-01-13T21:33:36.749Z,90.10
2023-01-13T21:36:30.237Z,89.90
2023-01-13T21:38:59.401Z,90.10
2023-01-13T21:44:55.093Z,89.82
2023-01-13T21:47:40.710Z,89.88
2023-01-13T21:50:11.432Z,89.91
2023-01-13T21:52:38.810Z,90.04
2023-01-13T21:55:23.741Z,90.04
2023-01-13T21:57:58.238Z,89.85
2023-01-13T22:00:29.465Z,89.77
2023-01-13T22:03:02.641Z,89.96
2023-01-13T22:05:30.432Z,89.84
2023-01-13T22:08:22.279Z,90.38
2023-01-13T22:10:57.150Z,90.29
2023-01-13T22:13:43.154Z,90.70
2023-01-13T22:16:16.526Z,90.80
2023-01-13T22:18:44.301Z,90.88
2023-01-13T22:21:12.231Z,90.80
2023-01-13T22:23:47.336Z,90.24
2023-01-13T22:26:14.210Z,90.46
2023-01-13T22:28:43.369Z,90.42
2023-01-13T22:31:15.329Z,90.37
2023-01-13T22:33:42.719Z,90.60
2023-01-13T22:36:15.891Z,90.60
2023-01-13T22:38:44.582Z,90.76
2023-01-13T22:41:36.238Z,90.87
2023-01-13T22:44:04.180Z,90.79
2023-01-13T22:46:32.172Z,90.57
2023-01-13T22:49:24.327Z,90.81
2023-01-13T22:51:52.539Z,90.99
2023-01-13T22:54:25.566Z,91.02
2023-01-13T22:56:54.224Z,91.02
2023-01-13T22:59:27.286Z,90.93
2023-01-13T23:01:54.202Z,90.70
2023-01-13T23:04:22.491Z,90.69
2023-01-13T23:06:54.285Z,90.47
2023-01-13T23:09:29.926Z,91.32
2023-01-13T23:11:58.869Z,91.27
2023-01-13T23:14:26.422Z,90.90
2023-01-13T23:17:23.346Z,90.75
2023-01-13T23:19:50.174Z,91.06
2023-01-13T23:22:22.238Z,91.11
2023-01-13T23:24:50.240Z,91.12
2023-01-13T23:27:18.338Z,91.03
2023-01-13T23:29:46.315Z,91.55
2023-01-13T23:32:14.209Z,91.64
2023-01-13T23:34:43.409Z,91.38
2023-01-13T23:37:12.184Z,91.30
2023-01-13T23:39:40.239Z,91.04
2023-01-13T23:42:32.207Z,91.22
2023-01-13T23:45:04.632Z,91.45
2023-01-13T23:47:37.183Z,91.23
2023-01-13T23:52:56.223Z,91.61
2023-01-13T23:55:48.230Z,91.40
2023-01-13T23:58:20.343Z,91.34
